sensor_id;sensor_type;location;lat;lon;timestamp;P1;durP1;ratioP1;P2;durP2;ratioP2
13366;SDS011;6752;52.612;13.630;2023-11-21T00:04:45;18.87;;;15.10;;
13366;SDS011;6752;52.612;13.630;2023-11-21T00:09:47;22.43;;;16.27;;
13366;SDS011;6752;52.612;13.630;2023-11-21T00:14:49;20.67;;;15.73;;
13366;SDS011;6752;52.612;13.630;2023-11-21T00:19:52;23.08;;;18.77;;
13366;SDS011;6752;52.612;13.630;2023-11-21T00:24:54;22.37;;;16.73;;
13366;SDS011;6752;52.612;13.630;2023-11-21T00:29:56;24.03;;;17.67;;
13366;SDS011;6752;52.612;13.630;2023-11-21T00:34:59;24.57;;;17.93;;
13366;SDS011;6752;52.612;13.630;2023-11-21T00:40:01;28.37;;;19.37;;
13366;SDS011;6752;52.612;13.630;2023-11-21T00:45:03;31.53;;;21.67;;
13366;SDS011;6752;52.612;13.630;2023-11-21T00:50:06;31.00;;;19.97;;
13366;SDS011;6752;52.612;13.630;2023-11-21T00:55:08;32.13;;;21.50;;
13366;SDS011;6752;52.612;13.630;2023-11-21T01:00:11;30.23;;;20.27;;
13366;SDS011;6752;52.612;13.630;2023-11-21T01:05:16;31.97;;;19.87;;
13366;SDS011;6752;52.612;13.630;2023-11-21T01:10:18;31.37;;;22.80;;
13366;SDS011;6752;52.612;13.630;2023-11-21T01:15:20;39.07;;;24.13;;
13366;SDS011;6752;52.612;13.630;2023-11-21T01:20:23;41.13;;;24.90;;
13366;SDS011;6752;52.612;13.630;2023-11-21T01:25:25;41.47;;;24.20;;
13366;SDS011;6752;52.612;13.630;2023-11-21T01:30:27;40.45;;;27.30;;
13366;SDS011;6752;52.612;13.630;2023-11-21T01:35:30;42.83;;;24.23;;
13366;SDS011;6752;52.612;13.630;2023-11-21T01:40:32;46.73;;;24.40;;
13366;SDS011;6752;52.612;13.630;2023-11-21T01:45:35;43.43;;;22.70;;
13366;SDS011;6752;52.612;13.630;2023-11-21T01:50:37;37.97;;;20.30;;
13366;SDS011;6752;52.612;13.630;2023-11-21T01:55:40;31.10;;;20.98;;
13366;SDS011;6752;52.612;13.630;2023-11-21T02:00:42;26.57;;;15.57;;
13366;SDS011;6752;52.612;13.630;2023-11-21T02:05:44;22.10;;;13.87;;
13366;SDS011;6752;52.612;13.630;2023-11-21T02:10:46;22.57;;;12.73;;
13366;SDS011;6752;52.612;13.630;2023-11-21T02:15:49;17.27;;;10.63;;
13366;SDS011;6752;52.612;13.630;2023-11-21T02:20:51;17.53;;;10.70;;
13366;SDS011;6752;52.612;13.630;2023-11-21T02:25:53;15.10;;;10.63;;
13366;SDS011;6752;52.612;13.630;2023-11-21T02:30:56;11.60;;;8.77;;
13366;SDS011;6752;52.612;13.630;2023-11-21T02:35:58;11.17;;;8.20;;
13366;SDS011;6752;52.612;13.630;2023-11-21T02:41:01;9.93;;;8.25;;
13366;SDS011;6752;52.612;13.630;2023-11-21T02:46:03;8.10;;;7.23;;
13366;SDS011;6752;52.612;13.630;2023-11-21T02:51:05;8.13;;;6.63;;
13366;SDS011;6752;52.612;13.630;2023-11-21T02:56:08;9.47;;;7.33;;
13366;SDS011;6752;52.612;13.630;2023-11-21T03:01:10;8.60;;;7.30;;
13366;SDS011;6752;52.612;13.630;2023-11-21T03:06:12;12.17;;;8.83;;
13366;SDS011;6752;52.612;13.630;2023-11-21T03:11:15;9.60;;;7.83;;
13366;SDS011;6752;52.612;13.630;2023-11-21T03:16:18;9.83;;;8.53;;
13366;SDS011;6752;52.612;13.630;2023-11-21T03:21:19;10.70;;;8.60;;
13366;SDS011;6752;52.612;13.630;2023-11-21T03:26:22;11.77;;;9.03;;
13366;SDS011;6752;52.612;13.630;2023-11-21T03:31:24;11.52;;;10.40;;
13366;SDS011;6752;52.612;13.630;2023-11-21T03:36:27;10.60;;;8.67;;
13366;SDS011;6752;52.612;13.630;2023-11-21T03:41:30;8.57;;;7.43;;
13366;SDS011;6752;52.612;13.630;2023-11-21T03:46:32;10.03;;;8.17;;
13366;SDS011;6752;52.612;13.630;2023-11-21T03:51:34;9.67;;;7.37;;
13366;SDS011;6752;52.612;13.630;2023-11-21T03:56:37;7.30;;;6.10;;
13366;SDS011;6752;52.612;13.630;2023-11-21T04:01:39;7.33;;;5.60;;
13366;SDS011;6752;52.612;13.630;2023-11-21T04:06:42;7.37;;;5.70;;
13366;SDS011;6752;52.612;13.630;2023-11-21T04:11:44;7.37;;;5.77;;
13366;SDS011;6752;52.612;13.630;2023-11-21T04:16:46;7.00;;;5.60;;
13366;SDS011;6752;52.612;13.630;2023-11-21T04:21:49;7.40;;;5.47;;
13366;SDS011;6752;52.612;13.630;2023-11-21T04:26:51;6.57;;;5.10;;
13366;SDS011;6752;52.612;13.630;2023-11-21T04:31:53;8.03;;;5.17;;
13366;SDS011;6752;52.612;13.630;2023-11-21T04:36:56;6.43;;;4.80;;
13366;SDS011;6752;52.612;13.630;2023-11-21T04:42:02;6.00;;;4.50;;
13366;SDS011;6752;52.612;13.630;2023-11-21T04:47:00;5.30;;;4.80;;
13366;SDS011;6752;52.612;13.630;2023-11-21T04:52:03;5.30;;;4.03;;
13366;SDS011;6752;52.612;13.630;2023-11-21T04:57:05;6.30;;;5.00;;
13366;SDS011;6752;52.612;13.630;2023-11-21T05:02:07;6.27;;;4.90;;
13366;SDS011;6752;52.612;13.630;2023-11-21T05:07:10;7.30;;;5.20;;
13366;SDS011;6752;52.612;13.630;2023-11-21T05:12:12;7.50;;;5.80;;
13366;SDS011;6752;52.612;13.630;2023-11-21T05:17:14;7.37;;;5.73;;
13366;SDS011;6752;52.612;13.630;2023-11-21T05:22:17;7.03;;;5.67;;
13366;SDS011;6752;52.612;13.630;2023-11-21T05:27:19;6.73;;;5.33;;
13366;SDS011;6752;52.612;13.630;2023-11-21T05:32:22;7.33;;;5.47;;
13366;SDS011;6752;52.612;13.630;2023-11-21T05:37:24;7.67;;;5.10;;
13366;SDS011;6752;52.612;13.630;2023-11-21T05:42:26;7.70;;;5.90;;
13366;SDS011;6752;52.612;13.630;2023-11-21T05:47:29;6.73;;;5.37;;
13366;SDS011;6752;52.612;13.630;2023-11-21T05:52:31;7.50;;;5.60;;
13366;SDS011;6752;52.612;13.630;2023-11-21T05:57:34;7.07;;;5.30;;
13366;SDS011;6752;52.612;13.630;2023-11-21T06:02:36;7.33;;;5.33;;
13366;SDS011;6752;52.612;13.630;2023-11-21T06:07:38;6.73;;;5.43;;
13366;SDS011;6752;52.612;13.630;2023-11-21T06:12:40;7.30;;;5.50;;
13366;SDS011;6752;52.612;13.630;2023-11-21T06:17:43;6.83;;;5.47;;
13366;SDS011;6752;52.612;13.630;2023-11-21T06:22:46;7.07;;;5.10;;
13366;SDS011;6752;52.612;13.630;2023-11-21T06:27:48;7.00;;;5.53;;
13366;SDS011;6752;52.612;13.630;2023-11-21T06:32:50;6.97;;;5.83;;
13366;SDS011;6752;52.612;13.630;2023-11-21T06:37:52;7.10;;;5.40;;
13366;SDS011;6752;52.612;13.630;2023-11-21T06:42:55;7.47;;;5.63;;
13366;SDS011;6752;52.612;13.630;2023-11-21T06:47:57;6.27;;;4.87;;
13366;SDS011;6752;52.612;13.630;2023-11-21T06:52:59;8.00;;;5.10;;
13366;SDS011;6752;52.612;13.630;2023-11-21T06:58:02;5.70;;;4.47;;
13366;SDS011;6752;52.612;13.630;2023-11-21T07:03:04;5.77;;;4.37;;
13366;SDS011;6752;52.612;13.630;2023-11-21T07:08:06;6.77;;;4.83;;
13366;SDS011;6752;52.612;13.630;2023-11-21T07:13:09;8.43;;;5.50;;
13366;SDS011;6752;52.612;13.630;2023-11-21T07:18:11;13.43;;;7.60;;
13366;SDS011;6752;52.612;13.630;2023-11-21T07:23:13;15.90;;;8.20;;
13366;SDS011;6752;52.612;13.630;2023-11-21T07:28:16;16.87;;;9.40;;
13366;SDS011;6752;52.612;13.630;2023-11-21T07:33:21;16.90;;;9.60;;
13366;SDS011;6752;52.612;13.630;2023-11-21T07:38:23;17.97;;;10.00;;
13366;SDS011;6752;52.612;13.630;2023-11-21T07:43:26;19.37;;;10.80;;
13366;SDS011;6752;52.612;13.630;2023-11-21T07:48:28;19.50;;;9.93;;
13366;SDS011;6752;52.612;13.630;2023-11-21T07:53:30;21.97;;;11.60;;
13366;SDS011;6752;52.612;13.630;2023-11-21T07:58:33;21.67;;;12.07;;
13366;SDS011;6752;52.612;13.630;2023-11-21T08:03:35;26.60;;;13.70;;
13366;SDS011;6752;52.612;13.630;2023-11-21T08:08:37;26.33;;;14.77;;
13366;SDS011;6752;52.612;13.630;2023-11-21T08:13:40;29.90;;;14.43;;
13366;SDS011;6752;52.612;13.630;2023-11-21T08:18:42;26.20;;;13.20;;
13366;SDS011;6752;52.612;13.630;2023-11-21T08:23:44;22.90;;;12.43;;
13366;SDS011;6752;52.612;13.630;2023-11-21T08:28:47;18.83;;;9.90;;
13366;SDS011;6752;52.612;13.630;2023-11-21T08:33:49;12.03;;;6.83;;
13366;SDS011;6752;52.612;13.630;2023-11-21T08:38:52;9.18;;;5.55;;
13366;SDS011;6752;52.612;13.630;2023-11-21T08:43:54;5.63;;;3.03;;
13366;SDS011;6752;52.612;13.630;2023-11-21T08:48:56;4.47;;;2.37;;
13366;SDS011;6752;52.612;13.630;2023-11-21T08:53:59;4.22;;;2.65;;
13366;SDS011;6752;52.612;13.630;2023-11-21T08:59:01;5.50;;;3.00;;
13366;SDS011;6752;52.612;13.630;2023-11-21T09:04:03;4.90;;;2.73;;
13366;SDS011;6752;52.612;13.630;2023-11-21T09:09:06;4.63;;;2.60;;
13366;SDS011;6752;52.612;13.630;2023-11-21T09:14:08;4.00;;;2.60;;
13366;SDS011;6752;52.612;13.630;2023-11-21T09:19:10;3.80;;;2.63;;
13366;SDS011;6752;52.612;13.630;2023-11-21T09:24:13;4.12;;;2.55;;
13366;SDS011;6752;52.612;13.630;2023-11-21T09:29:15;2.77;;;2.10;;
13366;SDS011;6752;52.612;13.630;2023-11-21T09:34:18;2.20;;;1.80;;
13366;SDS011;6752;52.612;13.630;2023-11-21T09:39:20;2.13;;;1.60;;
13366;SDS011;6752;52.612;13.630;2023-11-21T09:44:23;2.37;;;1.50;;
13366;SDS011;6752;52.612;13.630;2023-11-21T09:49:25;2.17;;;1.70;;
13366;SDS011;6752;52.612;13.630;2023-11-21T09:54:27;1.70;;;1.60;;
13366;SDS011;6752;52.612;13.630;2023-11-21T09:59:30;1.77;;;1.67;;
13366;SDS011;6752;52.612;13.630;2023-11-21T10:04:32;1.77;;;1.63;;
13366;SDS011;6752;52.612;13.630;2023-11-21T10:09:36;3.13;;;1.90;;
13366;SDS011;6752;52.612;13.630;2023-11-21T10:14:37;2.10;;;1.87;;
13366;SDS011;6752;52.612;13.630;2023-11-21T10:19:39;2.30;;;2.00;;
13366;SDS011;6752;52.612;13.630;2023-11-21T10:24:41;2.50;;;2.07;;
13366;SDS011;6752;52.612;13.630;2023-11-21T10:29:44;2.70;;;2.10;;
13366;SDS011;6752;52.612;13.630;2023-11-21T10:34:55;2.83;;;2.00;;
13366;SDS011;6752;52.612;13.630;2023-11-21T10:39:48;4.27;;;2.70;;
13366;SDS011;6752;52.612;13.630;2023-11-21T10:44:51;3.00;;;2.70;;
13366;SDS011;6752;52.612;13.630;2023-11-21T10:49:53;3.20;;;2.90;;
13366;SDS011;6752;52.612;13.630;2023-11-21T10:54:55;3.27;;;2.80;;
13366;SDS011;6752;52.612;13.630;2023-11-21T10:59:58;3.67;;;2.83;;
13366;SDS011;6752;52.612;13.630;2023-11-21T11:05:00;4.13;;;3.00;;
13366;SDS011;6752;52.612;13.630;2023-11-21T11:10:02;3.87;;;3.30;;
13366;SDS011;6752;52.612;13.630;2023-11-21T11:15:05;3.27;;;2.73;;
13366;SDS011;6752;52.612;13.630;2023-11-21T11:20:08;3.40;;;2.83;;
13366;SDS011;6752;52.612;13.630;2023-11-21T11:25:17;3.10;;;2.60;;
13366;SDS011;6752;52.612;13.630;2023-11-21T11:30:39;3.75;;;3.05;;
13366;SDS011;6752;52.612;13.630;2023-11-21T11:35:46;3.17;;;2.83;;
13366;SDS011;6752;52.612;13.630;2023-11-21T11:40:53;3.00;;;2.70;;
13366;SDS011;6752;52.612;13.630;2023-11-21T11:45:56;2.40;;;2.20;;
13366;SDS011;6752;52.612;13.630;2023-11-21T11:51:02;3.23;;;2.53;;
13366;SDS011;6752;52.612;13.630;2023-11-21T12:01:31;3.23;;;2.60;;
13366;SDS011;6752;52.612;13.630;2023-11-21T12:06:37;3.87;;;2.57;;
13366;SDS011;6752;52.612;13.630;2023-11-21T12:11:36;3.53;;;2.67;;
13366;SDS011;6752;52.612;13.630;2023-11-21T12:16:37;2.78;;;2.40;;
13366;SDS011;6752;52.612;13.630;2023-11-21T12:21:40;2.37;;;2.17;;
13366;SDS011;6752;52.612;13.630;2023-11-21T12:26:42;5.07;;;2.20;;
13366;SDS011;6752;52.612;13.630;2023-11-21T12:31:44;2.97;;;2.50;;
13366;SDS011;6752;52.612;13.630;2023-11-21T12:36:47;2.83;;;2.40;;
13366;SDS011;6752;52.612;13.630;2023-11-21T12:41:49;3.57;;;2.93;;
13366;SDS011;6752;52.612;13.630;2023-11-21T12:46:51;3.50;;;3.20;;
13366;SDS011;6752;52.612;13.630;2023-11-21T12:51:54;3.57;;;2.97;;
13366;SDS011;6752;52.612;13.630;2023-11-21T12:56:59;5.13;;;3.57;;
13366;SDS011;6752;52.612;13.630;2023-11-21T13:01:59;5.53;;;4.17;;
13366;SDS011;6752;52.612;13.630;2023-11-21T13:07:04;5.40;;;4.50;;
13366;SDS011;6752;52.612;13.630;2023-11-21T13:12:09;5.23;;;4.13;;
13366;SDS011;6752;52.612;13.630;2023-11-21T13:17:11;5.03;;;4.33;;
13366;SDS011;6752;52.612;13.630;2023-11-21T13:22:14;6.35;;;5.75;;
13366;SDS011;6752;52.612;13.630;2023-11-21T13:27:16;5.53;;;4.90;;
13366;SDS011;6752;52.612;13.630;2023-11-21T13:32:18;5.72;;;5.10;;
13366;SDS011;6752;52.612;13.630;2023-11-21T13:37:21;6.80;;;5.70;;
13366;SDS011;6752;52.612;13.630;2023-11-21T13:42:23;7.33;;;5.60;;
13366;SDS011;6752;52.612;13.630;2023-11-21T13:47:25;9.13;;;7.47;;
13366;SDS011;6752;52.612;13.630;2023-11-21T13:52:28;11.03;;;9.50;;
13366;SDS011;6752;52.612;13.630;2023-11-21T13:57:30;10.47;;;9.00;;
13366;SDS011;6752;52.612;13.630;2023-11-21T14:02:32;11.83;;;10.10;;
13366;SDS011;6752;52.612;13.630;2023-11-21T14:07:35;13.30;;;10.57;;
13366;SDS011;6752;52.612;13.630;2023-11-21T14:12:37;16.00;;;12.80;;
13366;SDS011;6752;52.612;13.630;2023-11-21T14:17:39;17.17;;;13.80;;
13366;SDS011;6752;52.612;13.630;2023-11-21T14:22:42;18.23;;;14.70;;
13366;SDS011;6752;52.612;13.630;2023-11-21T14:27:44;16.10;;;13.43;;
13366;SDS011;6752;52.612;13.630;2023-11-21T14:32:47;18.70;;;14.70;;
13366;SDS011;6752;52.612;13.630;2023-11-21T14:37:49;17.67;;;14.10;;
13366;SDS011;6752;52.612;13.630;2023-11-21T14:42:51;15.88;;;14.20;;
13366;SDS011;6752;52.612;13.630;2023-11-21T14:47:54;14.83;;;12.77;;
13366;SDS011;6752;52.612;13.630;2023-11-21T14:53:02;15.13;;;11.77;;
13366;SDS011;6752;52.612;13.630;2023-11-21T14:58:04;15.70;;;12.63;;
13366;SDS011;6752;52.612;13.630;2023-11-21T15:03:07;14.93;;;12.17;;
13366;SDS011;6752;52.612;13.630;2023-11-21T15:08:09;15.23;;;11.90;;
13366;SDS011;6752;52.612;13.630;2023-11-21T15:13:20;14.50;;;11.13;;
13366;SDS011;6752;52.612;13.630;2023-11-21T15:18:22;13.37;;;11.07;;
13366;SDS011;6752;52.612;13.630;2023-11-21T15:23:25;16.63;;;12.40;;
13366;SDS011;6752;52.612;13.630;2023-11-21T15:28:27;13.53;;;10.60;;
13366;SDS011;6752;52.612;13.630;2023-11-21T15:33:30;13.40;;;10.27;;
13366;SDS011;6752;52.612;13.630;2023-11-21T15:38:32;12.17;;;10.20;;
13366;SDS011;6752;52.612;13.630;2023-11-21T15:43:34;12.70;;;9.27;;
13366;SDS011;6752;52.612;13.630;2023-11-21T15:48:37;12.67;;;9.23;;
13366;SDS011;6752;52.612;13.630;2023-11-21T15:53:39;12.40;;;9.43;;
13366;SDS011;6752;52.612;13.630;2023-11-21T15:58:42;14.97;;;10.03;;
13366;SDS011;6752;52.612;13.630;2023-11-21T16:03:44;10.30;;;8.83;;
13366;SDS011;6752;52.612;13.630;2023-11-21T16:08:46;11.93;;;9.07;;
13366;SDS011;6752;52.612;13.630;2023-11-21T16:13:49;11.43;;;8.90;;
13366;SDS011;6752;52.612;13.630;2023-11-21T16:18:51;10.45;;;9.35;;
13366;SDS011;6752;52.612;13.630;2023-11-21T16:23:53;11.40;;;8.67;;
13366;SDS011;6752;52.612;13.630;2023-11-21T16:28:56;13.17;;;9.27;;
13366;SDS011;6752;52.612;13.630;2023-11-21T16:33:58;11.60;;;9.07;;
13366;SDS011;6752;52.612;13.630;2023-11-21T16:39:01;10.87;;;8.87;;
13366;SDS011;6752;52.612;13.630;2023-11-21T16:44:04;12.33;;;9.33;;
13366;SDS011;6752;52.612;13.630;2023-11-21T16:49:06;11.07;;;9.00;;
13366;SDS011;6752;52.612;13.630;2023-11-21T16:54:09;11.90;;;9.30;;
13366;SDS011;6752;52.612;13.630;2023-11-21T16:59:11;13.03;;;9.27;;
13366;SDS011;6752;52.612;13.630;2023-11-21T17:04:14;12.77;;;9.50;;
13366;SDS011;6752;52.612;13.630;2023-11-21T17:09:16;13.37;;;9.33;;
13366;SDS011;6752;52.612;13.630;2023-11-21T17:14:21;11.47;;;8.77;;
13366;SDS011;6752;52.612;13.630;2023-11-21T17:19:23;10.70;;;8.13;;
13366;SDS011;6752;52.612;13.630;2023-11-21T17:24:26;10.97;;;8.10;;
13366;SDS011;6752;52.612;13.630;2023-11-21T17:29:28;10.87;;;8.00;;
13366;SDS011;6752;52.612;13.630;2023-11-21T17:34:30;10.53;;;8.00;;
13366;SDS011;6752;52.612;13.630;2023-11-21T17:39:33;9.73;;;7.47;;
13366;SDS011;6752;52.612;13.630;2023-11-21T17:44:35;8.80;;;7.20;;
13366;SDS011;6752;52.612;13.630;2023-11-21T17:49:37;9.70;;;7.97;;
13366;SDS011;6752;52.612;13.630;2023-11-21T17:54:40;10.43;;;8.70;;
13366;SDS011;6752;52.612;13.630;2023-11-21T17:59:42;9.67;;;7.27;;
13366;SDS011;6752;52.612;13.630;2023-11-21T18:04:44;12.10;;;8.10;;
13366;SDS011;6752;52.612;13.630;2023-11-21T18:09:47;10.10;;;8.45;;
13366;SDS011;6752;52.612;13.630;2023-11-21T18:14:49;10.10;;;7.57;;
13366;SDS011;6752;52.612;13.630;2023-11-21T18:19:51;10.97;;;8.07;;
13366;SDS011;6752;52.612;13.630;2023-11-21T18:24:54;10.50;;;7.87;;
13366;SDS011;6752;52.612;13.630;2023-11-21T18:29:56;10.47;;;7.70;;
13366;SDS011;6752;52.612;13.630;2023-11-21T18:35:01;10.87;;;7.80;;
13366;SDS011;6752;52.612;13.630;2023-11-21T18:40:03;9.43;;;7.37;;
13366;SDS011;6752;52.612;13.630;2023-11-21T18:45:06;9.47;;;7.40;;
13366;SDS011;6752;52.612;13.630;2023-11-21T18:50:08;10.70;;;7.27;;
13366;SDS011;6752;52.612;13.630;2023-11-21T18:55:10;11.73;;;7.40;;
13366;SDS011;6752;52.612;13.630;2023-11-21T19:00:13;9.70;;;7.10;;
13366;SDS011;6752;52.612;13.630;2023-11-21T19:05:15;9.87;;;6.83;;
13366;SDS011;6752;52.612;13.630;2023-11-21T19:10:18;9.07;;;6.90;;
13366;SDS011;6752;52.612;13.630;2023-11-21T19:15:20;10.97;;;7.03;;
13366;SDS011;6752;52.612;13.630;2023-11-21T19:20:22;9.40;;;7.23;;
13366;SDS011;6752;52.612;13.630;2023-11-21T19:25:25;10.23;;;7.17;;
13366;SDS011;6752;52.612;13.630;2023-11-21T19:30:27;10.13;;;7.67;;
13366;SDS011;6752;52.612;13.630;2023-11-21T19:35:29;8.90;;;7.10;;
13366;SDS011;6752;52.612;13.630;2023-11-21T19:40:32;8.63;;;6.77;;
13366;SDS011;6752;52.612;13.630;2023-11-21T19:45:34;9.03;;;6.73;;
13366;SDS011;6752;52.612;13.630;2023-11-21T19:50:36;9.17;;;6.80;;
13366;SDS011;6752;52.612;13.630;2023-11-21T19:55:39;9.70;;;6.47;;
13366;SDS011;6752;52.612;13.630;2023-11-21T20:00:41;9.47;;;7.10;;
13366;SDS011;6752;52.612;13.630;2023-11-21T20:05:44;9.33;;;6.43;;
13366;SDS011;6752;52.612;13.630;2023-11-21T20:10:46;8.73;;;6.67;;
13366;SDS011;6752;52.612;13.630;2023-11-21T20:15:48;8.80;;;5.93;;
13366;SDS011;6752;52.612;13.630;2023-11-21T20:20:51;7.70;;;6.68;;
13366;SDS011;6752;52.612;13.630;2023-11-21T20:25:53;8.33;;;5.73;;
13366;SDS011;6752;52.612;13.630;2023-11-21T20:30:55;7.53;;;5.33;;
13366;SDS011;6752;52.612;13.630;2023-11-21T20:35:58;7.47;;;5.50;;
13366;SDS011;6752;52.612;13.630;2023-11-21T20:41:00;9.40;;;5.90;;
13366;SDS011;6752;52.612;13.630;2023-11-21T20:46:02;8.37;;;5.30;;
13366;SDS011;6752;52.612;13.630;2023-11-21T20:51:05;7.67;;;5.10;;
13366;SDS011;6752;52.612;13.630;2023-11-21T20:56:07;7.87;;;4.87;;
13366;SDS011;6752;52.612;13.630;2023-11-21T21:01:09;7.13;;;4.87;;
13366;SDS011;6752;52.612;13.630;2023-11-21T21:06:12;8.73;;;4.80;;
13366;SDS011;6752;52.612;13.630;2023-11-21T21:11:17;6.62;;;5.50;;
13366;SDS011;6752;52.612;13.630;2023-11-21T21:16:19;6.17;;;5.20;;
13366;SDS011;6752;52.612;13.630;2023-11-21T21:21:30;7.07;;;5.10;;
13366;SDS011;6752;52.612;13.630;2023-11-21T21:26:30;6.93;;;4.83;;
13366;SDS011;6752;52.612;13.630;2023-11-21T21:31:32;6.25;;;5.05;;
13366;SDS011;6752;52.612;13.630;2023-11-21T21:36:34;6.70;;;4.63;;
13366;SDS011;6752;52.612;13.630;2023-11-21T21:41:37;6.67;;;4.43;;
13366;SDS011;6752;52.612;13.630;2023-11-21T21:46:39;6.40;;;4.63;;
13366;SDS011;6752;52.612;13.630;2023-11-21T21:51:41;7.60;;;4.70;;
13366;SDS011;6752;52.612;13.630;2023-11-21T21:56:44;5.80;;;4.20;;
13366;SDS011;6752;52.612;13.630;2023-11-21T22:01:46;7.63;;;4.70;;
13366;SDS011;6752;52.612;13.630;2023-11-21T22:06:48;7.10;;;4.23;;
13366;SDS011;6752;52.612;13.630;2023-11-21T22:11:51;6.90;;;4.63;;
13366;SDS011;6752;52.612;13.630;2023-11-21T22:16:53;6.73;;;4.70;;
13366;SDS011;6752;52.612;13.630;2023-11-21T22:21:55;7.20;;;5.57;;
13366;SDS011;6752;52.612;13.630;2023-11-21T22:26:58;7.73;;;5.80;;
13366;SDS011;6752;52.612;13.630;2023-11-21T22:32:00;7.97;;;5.67;;
13366;SDS011;6752;52.612;13.630;2023-11-21T22:37:03;8.57;;;5.67;;
13366;SDS011;6752;52.612;13.630;2023-11-21T22:42:05;9.33;;;5.97;;
13366;SDS011;6752;52.612;13.630;2023-11-21T22:47:07;7.20;;;5.50;;
13366;SDS011;6752;52.612;13.630;2023-11-21T22:52:10;6.90;;;5.37;;
13366;SDS011;6752;52.612;13.630;2023-11-21T22:57:12;8.10;;;5.60;;
13366;SDS011;6752;52.612;13.630;2023-11-21T23:02:14;10.20;;;5.63;;
13366;SDS011;6752;52.612;13.630;2023-11-21T23:07:17;7.53;;;6.03;;
13366;SDS011;6752;52.612;13.630;2023-11-21T23:12:19;7.60;;;4.73;;
13366;SDS011;6752;52.612;13.630;2023-11-21T23:17:21;7.57;;;5.13;;
13366;SDS011;6752;52.612;13.630;2023-11-21T23:22:24;7.80;;;4.80;;
13366;SDS011;6752;52.612;13.630;2023-11-21T23:27:26;7.20;;;4.87;;
13366;SDS011;6752;52.612;13.630;2023-11-21T23:32:28;6.07;;;4.50;;
13366;SDS011;6752;52.612;13.630;2023-11-21T23:37:31;7.37;;;4.53;;
13366;SDS011;6752;52.612;13.630;2023-11-21T23:42:33;6.77;;;4.73;;
13366;SDS011;6752;52.612;13.630;2023-11-21T23:47:36;7.63;;;4.87;;
13366;SDS011;6752;52.612;13.630;2023-11-21T23:52:38;8.90;;;5.43;;
13366;SDS011;6752;52.612;13.630;2023-11-21T23:57:40;6.53;;;4.37;;
